sensor_id;sensor_type;location;lat;lon;timestamp;P1;durP1;ratioP1;P2;durP2;ratioP2
9563;SDS011;4820;50.870;4.702;2023-02-19T00:01:25;4.82;;;4.28;;
9563;SDS011;4820;50.870;4.702;2023-02-19T00:04:00;4.50;;;4.10;;
9563;SDS011;4820;50.870;4.702;2023-02-19T00:06:27;4.95;;;4.20;;
9563;SDS011;4820;50.870;4.702;2023-02-19T00:08:54;5.35;;;4.35;;
9563;SDS011;4820;50.870;4.702;2023-02-19T00:11:21;4.70;;;4.13;;
9563;SDS011;4820;50.870;4.702;2023-02-19T00:13:50;6.90;;;4.38;;
9563;SDS011;4820;50.870;4.702;2023-02-19T00:16:18;4.95;;;4.43;;
9563;SDS011;4820;50.870;4.702;2023-02-19T00:18:53;4.72;;;4.30;;
9563;SDS011;4820;50.870;4.702;2023-02-19T00:21:19;5.90;;;4.20;;
9563;SDS011;4820;50.870;4.702;2023-02-19T00:23:49;5.40;;;4.35;;
9563;SDS011;4820;50.870;4.702;2023-02-19T00:26:15;5.53;;;4.30;;
9563;SDS011;4820;50.870;4.702;2023-02-19T00:28:41;5.13;;;4.45;;
9563;SDS011;4820;50.870;4.702;2023-02-19T00:31:08;5.43;;;4.93;;
9563;SDS011;4820;50.870;4.702;2023-02-19T00:33:39;5.65;;;5.07;;
9563;SDS011;4820;50.870;4.702;2023-02-19T00:36:04;6.50;;;5.90;;
9563;SDS011;4820;50.870;4.702;2023-02-19T00:38:31;6.90;;;5.68;;
9563;SDS011;4820;50.870;4.702;2023-02-19T00:41:00;7.20;;;6.15;;
9563;SDS011;4820;50.870;4.702;2023-02-19T00:43:26;7.97;;;6.20;;
9563;SDS011;4820;50.870;4.702;2023-02-19T00:45:52;7.75;;;6.50;;
9563;SDS011;4820;50.870;4.702;2023-02-19T00:48:17;7.75;;;6.50;;
9563;SDS011;4820;50.870;4.702;2023-02-19T00:50:43;7.55;;;6.53;;
9563;SDS011;4820;50.870;4.702;2023-02-19T00:53:08;8.68;;;6.80;;
9563;SDS011;4820;50.870;4.702;2023-02-19T00:55:34;9.00;;;6.72;;
9563;SDS011;4820;50.870;4.702;2023-02-19T00:58:00;9.68;;;6.85;;
9563;SDS011;4820;50.870;4.702;2023-02-19T01:00:26;7.70;;;6.28;;
9563;SDS011;4820;50.870;4.702;2023-02-19T01:02:52;8.15;;;6.25;;
9563;SDS011;4820;50.870;4.702;2023-02-19T01:05:17;7.68;;;6.20;;
9563;SDS011;4820;50.870;4.702;2023-02-19T01:07:43;10.70;;;6.45;;
9563;SDS011;4820;50.870;4.702;2023-02-19T01:10:09;7.20;;;6.32;;
9563;SDS011;4820;50.870;4.702;2023-02-19T01:12:34;7.65;;;5.70;;
9563;SDS011;4820;50.870;4.702;2023-02-19T01:15:00;7.78;;;6.03;;
9563;SDS011;4820;50.870;4.702;2023-02-19T01:17:26;9.07;;;6.22;;
9563;SDS011;4820;50.870;4.702;2023-02-19T01:19:51;8.52;;;5.90;;
9563;SDS011;4820;50.870;4.702;2023-02-19T01:22:17;8.30;;;5.85;;
9563;SDS011;4820;50.870;4.702;2023-02-19T01:24:42;7.05;;;5.32;;
9563;SDS011;4820;50.870;4.702;2023-02-19T01:27:08;7.55;;;5.47;;
9563;SDS011;4820;50.870;4.702;2023-02-19T01:29:34;7.05;;;5.40;;
9563;SDS011;4820;50.870;4.702;2023-02-19T01:31:59;9.13;;;5.90;;
9563;SDS011;4820;50.870;4.702;2023-02-19T01:34:25;7.57;;;6.13;;
9563;SDS011;4820;50.870;4.702;2023-02-19T01:36:54;7.35;;;5.60;;
9563;SDS011;4820;50.870;4.702;2023-02-19T01:39:19;9.52;;;5.30;;
9563;SDS011;4820;50.870;4.702;2023-02-19T01:41:45;7.57;;;4.70;;
9563;SDS011;4820;50.870;4.702;2023-02-19T01:46:40;7.53;;;5.25;;
9563;SDS011;4820;50.870;4.702;2023-02-19T01:49:20;8.45;;;5.43;;
9563;SDS011;4820;50.870;4.702;2023-02-19T01:52:24;10.93;;;5.53;;
9563;SDS011;4820;50.870;4.702;2023-02-19T01:54:56;10.82;;;5.53;;
9563;SDS011;4820;50.870;4.702;2023-02-19T01:57:25;8.90;;;5.35;;
9563;SDS011;4820;50.870;4.702;2023-02-19T01:59:54;9.68;;;5.03;;
9563;SDS011;4820;50.870;4.702;2023-02-19T02:02:27;10.23;;;5.45;;
9563;SDS011;4820;50.870;4.702;2023-02-19T02:04:56;8.10;;;5.05;;
9563;SDS011;4820;50.870;4.702;2023-02-19T02:07:24;10.88;;;5.15;;
9563;SDS011;4820;50.870;4.702;2023-02-19T02:10:08;8.93;;;5.10;;
9563;SDS011;4820;50.870;4.702;2023-02-19T02:12:45;9.50;;;5.45;;
9563;SDS011;4820;50.870;4.702;2023-02-19T02:15:14;8.18;;;4.50;;
9563;SDS011;4820;50.870;4.702;2023-02-19T02:26:31;9.75;;;4.43;;
9563;SDS011;4820;50.870;4.702;2023-02-19T02:29:20;7.63;;;4.00;;
9563;SDS011;4820;50.870;4.702;2023-02-19T02:32:13;8.93;;;3.65;;
9563;SDS011;4820;50.870;4.702;2023-02-19T02:34:47;7.75;;;3.50;;
9563;SDS011;4820;50.870;4.702;2023-02-19T02:37:17;8.80;;;3.50;;
9563;SDS011;4820;50.870;4.702;2023-02-19T02:39:44;8.73;;;3.78;;
9563;SDS011;4820;50.870;4.702;2023-02-19T02:42:10;7.47;;;3.58;;
9563;SDS011;4820;50.870;4.702;2023-02-19T02:44:52;8.70;;;3.80;;
9563;SDS011;4820;50.870;4.702;2023-02-19T02:47:44;6.28;;;3.35;;
9563;SDS011;4820;50.870;4.702;2023-02-19T02:53:07;8.07;;;3.40;;
9563;SDS011;4820;50.870;4.702;2023-02-19T02:56:02;6.05;;;3.10;;
9563;SDS011;4820;50.870;4.702;2023-02-19T02:58:30;7.30;;;3.30;;
9563;SDS011;4820;50.870;4.702;2023-02-19T03:01:06;10.13;;;3.60;;
9563;SDS011;4820;50.870;4.702;2023-02-19T03:03:55;8.60;;;3.20;;
9563;SDS011;4820;50.870;4.702;2023-02-19T03:06:27;9.10;;;2.80;;
9563;SDS011;4820;50.870;4.702;2023-02-19T03:08:57;7.35;;;3.40;;
9563;SDS011;4820;50.870;4.702;2023-02-19T03:11:40;7.65;;;2.80;;
9563;SDS011;4820;50.870;4.702;2023-02-19T03:14:33;11.10;;;3.33;;
9563;SDS011;4820;50.870;4.702;2023-02-19T03:17:27;8.10;;;3.30;;
9563;SDS011;4820;50.870;4.702;2023-02-19T03:20:21;9.30;;;3.10;;
9563;SDS011;4820;50.870;4.702;2023-02-19T03:22:48;9.27;;;3.15;;
9563;SDS011;4820;50.870;4.702;2023-02-19T03:25:17;7.13;;;2.60;;
9563;SDS011;4820;50.870;4.702;2023-02-19T03:28:03;6.47;;;2.75;;
9563;SDS011;4820;50.870;4.702;2023-02-19T03:30:32;9.60;;;3.03;;
9563;SDS011;4820;50.870;4.702;2023-02-19T03:33:07;7.55;;;2.90;;
9563;SDS011;4820;50.870;4.702;2023-02-19T03:35:39;7.32;;;2.80;;
9563;SDS011;4820;50.870;4.702;2023-02-19T03:38:27;7.60;;;2.67;;
9563;SDS011;4820;50.870;4.702;2023-02-19T03:41:08;7.95;;;2.72;;
9563;SDS011;4820;50.870;4.702;2023-02-19T03:43:41;7.40;;;2.70;;
9563;SDS011;4820;50.870;4.702;2023-02-19T03:49:07;9.00;;;2.85;;
9563;SDS011;4820;50.870;4.702;2023-02-19T03:51:56;7.88;;;2.60;;
9563;SDS011;4820;50.870;4.702;2023-02-19T03:54:55;9.93;;;2.80;;
9563;SDS011;4820;50.870;4.702;2023-02-19T03:57:48;9.48;;;2.78;;
9563;SDS011;4820;50.870;4.702;2023-02-19T04:00:31;7.07;;;2.75;;
9563;SDS011;4820;50.870;4.702;2023-02-19T04:03:22;10.60;;;3.00;;
9563;SDS011;4820;50.870;4.702;2023-02-19T04:06:01;8.02;;;2.65;;
9563;SDS011;4820;50.870;4.702;2023-02-19T04:08:29;8.88;;;2.97;;
9563;SDS011;4820;50.870;4.702;2023-02-19T04:10:58;9.25;;;2.42;;
9563;SDS011;4820;50.870;4.702;2023-02-19T04:13:29;7.88;;;2.88;;
9563;SDS011;4820;50.870;4.702;2023-02-19T04:16:12;6.40;;;2.58;;
9563;SDS011;4820;50.870;4.702;2023-02-19T04:18:42;6.38;;;2.58;;
9563;SDS011;4820;50.870;4.702;2023-02-19T04:21:10;8.20;;;2.50;;
9563;SDS011;4820;50.870;4.702;2023-02-19T04:23:38;7.80;;;2.72;;
9563;SDS011;4820;50.870;4.702;2023-02-19T04:26:07;6.90;;;2.75;;
9563;SDS011;4820;50.870;4.702;2023-02-19T04:28:34;10.85;;;3.00;;
9563;SDS011;4820;50.870;4.702;2023-02-19T04:31:02;11.65;;;2.90;;
9563;SDS011;4820;50.870;4.702;2023-02-19T04:33:27;8.48;;;2.95;;
9563;SDS011;4820;50.870;4.702;2023-02-19T04:35:53;10.45;;;2.97;;
9563;SDS011;4820;50.870;4.702;2023-02-19T04:38:19;9.82;;;3.13;;
9563;SDS011;4820;50.870;4.702;2023-02-19T04:40:44;8.98;;;2.78;;
9563;SDS011;4820;50.870;4.702;2023-02-19T04:43:11;7.10;;;2.33;;
9563;SDS011;4820;50.870;4.702;2023-02-19T04:45:37;7.75;;;2.33;;
9563;SDS011;4820;50.870;4.702;2023-02-19T04:48:03;10.25;;;3.13;;
9563;SDS011;4820;50.870;4.702;2023-02-19T04:50:29;6.50;;;2.47;;
9563;SDS011;4820;50.870;4.702;2023-02-19T04:52:55;7.38;;;3.08;;
9563;SDS011;4820;50.870;4.702;2023-02-19T04:55:21;11.20;;;3.35;;
9563;SDS011;4820;50.870;4.702;2023-02-19T04:57:47;11.23;;;3.20;;
9563;SDS011;4820;50.870;4.702;2023-02-19T05:00:12;8.15;;;2.50;;
9563;SDS011;4820;50.870;4.702;2023-02-19T05:02:39;9.07;;;2.75;;
9563;SDS011;4820;50.870;4.702;2023-02-19T05:05:05;8.43;;;2.95;;
9563;SDS011;4820;50.870;4.702;2023-02-19T05:07:31;8.88;;;2.97;;
9563;SDS011;4820;50.870;4.702;2023-02-19T05:09:57;9.48;;;3.05;;
9563;SDS011;4820;50.870;4.702;2023-02-19T05:12:23;8.50;;;2.72;;
9563;SDS011;4820;50.870;4.702;2023-02-19T05:14:49;9.18;;;2.80;;
9563;SDS011;4820;50.870;4.702;2023-02-19T05:17:15;9.13;;;3.00;;
9563;SDS011;4820;50.870;4.702;2023-02-19T05:19:41;8.40;;;3.00;;
9563;SDS011;4820;50.870;4.702;2023-02-19T05:22:06;9.13;;;2.58;;
9563;SDS011;4820;50.870;4.702;2023-02-19T05:24:32;8.45;;;2.83;;
9563;SDS011;4820;50.870;4.702;2023-02-19T05:26:57;9.70;;;3.00;;
9563;SDS011;4820;50.870;4.702;2023-02-19T05:29:23;8.20;;;2.97;;
9563;SDS011;4820;50.870;4.702;2023-02-19T05:31:49;8.90;;;3.22;;
9563;SDS011;4820;50.870;4.702;2023-02-19T05:34:14;8.55;;;2.78;;
9563;SDS011;4820;50.870;4.702;2023-02-19T05:36:40;7.82;;;3.08;;
9563;SDS011;4820;50.870;4.702;2023-02-19T05:39:06;8.15;;;3.03;;
9563;SDS011;4820;50.870;4.702;2023-02-19T05:41:33;13.65;;;3.45;;
9563;SDS011;4820;50.870;4.702;2023-02-19T05:43:59;9.80;;;3.10;;
9563;SDS011;4820;50.870;4.702;2023-02-19T05:46:25;12.82;;;3.65;;
9563;SDS011;4820;50.870;4.702;2023-02-19T05:48:53;12.13;;;3.30;;
9563;SDS011;4820;50.870;4.702;2023-02-19T05:51:20;9.70;;;2.97;;
9563;SDS011;4820;50.870;4.702;2023-02-19T05:53:47;9.90;;;3.10;;
9563;SDS011;4820;50.870;4.702;2023-02-19T05:58:51;8.00;;;2.80;;
9563;SDS011;4820;50.870;4.702;2023-02-19T06:01:17;9.90;;;2.67;;
9563;SDS011;4820;50.870;4.702;2023-02-19T06:03:44;12.25;;;3.58;;
9563;SDS011;4820;50.870;4.702;2023-02-19T06:06:12;8.73;;;2.70;;
9563;SDS011;4820;50.870;4.702;2023-02-19T06:08:39;12.88;;;3.20;;
9563;SDS011;4820;50.870;4.702;2023-02-19T06:11:04;10.88;;;3.33;;
9563;SDS011;4820;50.870;4.702;2023-02-19T06:13:30;10.10;;;2.92;;
9563;SDS011;4820;50.870;4.702;2023-02-19T06:15:56;10.55;;;3.17;;
9563;SDS011;4820;50.870;4.702;2023-02-19T06:18:21;10.15;;;3.05;;
9563;SDS011;4820;50.870;4.702;2023-02-19T06:20:47;8.95;;;3.15;;
9563;SDS011;4820;50.870;4.702;2023-02-19T06:23:13;10.98;;;3.03;;
9563;SDS011;4820;50.870;4.702;2023-02-19T06:25:38;8.68;;;3.20;;
9563;SDS011;4820;50.870;4.702;2023-02-19T06:28:04;9.32;;;2.72;;
9563;SDS011;4820;50.870;4.702;2023-02-19T06:30:29;11.18;;;3.45;;
9563;SDS011;4820;50.870;4.702;2023-02-19T06:32:55;8.75;;;2.70;;
9563;SDS011;4820;50.870;4.702;2023-02-19T06:35:21;12.02;;;3.25;;
9563;SDS011;4820;50.870;4.702;2023-02-19T06:37:47;8.73;;;2.63;;
9563;SDS011;4820;50.870;4.702;2023-02-19T06:40:14;8.48;;;2.65;;
9563;SDS011;4820;50.870;4.702;2023-02-19T06:42:39;11.13;;;3.10;;
9563;SDS011;4820;50.870;4.702;2023-02-19T06:45:05;9.60;;;3.15;;
9563;SDS011;4820;50.870;4.702;2023-02-19T06:47:31;12.38;;;3.30;;
9563;SDS011;4820;50.870;4.702;2023-02-19T06:49:58;11.60;;;2.78;;
9563;SDS011;4820;50.870;4.702;2023-02-19T06:52:25;9.55;;;2.63;;
9563;SDS011;4820;50.870;4.702;2023-02-19T06:54:51;13.52;;;3.00;;
9563;SDS011;4820;50.870;4.702;2023-02-19T06:57:17;9.25;;;3.38;;
9563;SDS011;4820;50.870;4.702;2023-02-19T06:59:43;13.32;;;2.88;;
9563;SDS011;4820;50.870;4.702;2023-02-19T07:02:09;10.10;;;2.70;;
9563;SDS011;4820;50.870;4.702;2023-02-19T07:04:36;9.57;;;3.00;;
9563;SDS011;4820;50.870;4.702;2023-02-19T07:07:01;10.45;;;2.92;;
9563;SDS011;4820;50.870;4.702;2023-02-19T07:09:27;8.63;;;2.90;;
9563;SDS011;4820;50.870;4.702;2023-02-19T07:11:53;9.63;;;2.80;;
9563;SDS011;4820;50.870;4.702;2023-02-19T07:14:18;9.15;;;2.75;;
9563;SDS011;4820;50.870;4.702;2023-02-19T07:16:45;10.10;;;2.80;;
9563;SDS011;4820;50.870;4.702;2023-02-19T07:19:12;11.27;;;3.40;;
9563;SDS011;4820;50.870;4.702;2023-02-19T07:21:39;10.15;;;2.88;;
9563;SDS011;4820;50.870;4.702;2023-02-19T07:24:06;9.35;;;3.13;;
9563;SDS011;4820;50.870;4.702;2023-02-19T07:26:33;7.22;;;2.72;;
9563;SDS011;4820;50.870;4.702;2023-02-19T07:29:00;10.10;;;3.13;;
9563;SDS011;4820;50.870;4.702;2023-02-19T07:31:26;9.60;;;2.85;;
9563;SDS011;4820;50.870;4.702;2023-02-19T07:33:52;9.98;;;3.15;;
9563;SDS011;4820;50.870;4.702;2023-02-19T07:36:19;7.80;;;2.70;;
9563;SDS011;4820;50.870;4.702;2023-02-19T07:38:46;9.38;;;2.90;;
9563;SDS011;4820;50.870;4.702;2023-02-19T07:41:19;10.02;;;2.95;;
9563;SDS011;4820;50.870;4.702;2023-02-19T07:43:45;7.20;;;2.60;;
9563;SDS011;4820;50.870;4.702;2023-02-19T07:46:12;8.15;;;2.90;;
9563;SDS011;4820;50.870;4.702;2023-02-19T07:48:38;10.18;;;3.17;;
9563;SDS011;4820;50.870;4.702;2023-02-19T07:51:07;9.77;;;2.60;;
9563;SDS011;4820;50.870;4.702;2023-02-19T07:53:43;10.00;;;2.92;;
9563;SDS011;4820;50.870;4.702;2023-02-19T07:56:10;7.90;;;2.83;;
9563;SDS011;4820;50.870;4.702;2023-02-19T07:58:36;10.27;;;2.95;;
9563;SDS011;4820;50.870;4.702;2023-02-19T08:01:07;7.55;;;2.72;;
9563;SDS011;4820;50.870;4.702;2023-02-19T08:03:40;8.68;;;2.80;;
9563;SDS011;4820;50.870;4.702;2023-02-19T08:06:06;8.32;;;2.60;;
9563;SDS011;4820;50.870;4.702;2023-02-19T08:08:32;12.07;;;3.38;;
9563;SDS011;4820;50.870;4.702;2023-02-19T08:10:59;10.18;;;3.00;;
9563;SDS011;4820;50.870;4.702;2023-02-19T08:13:43;8.07;;;2.55;;
9563;SDS011;4820;50.870;4.702;2023-02-19T08:16:12;9.85;;;3.13;;
9563;SDS011;4820;50.870;4.702;2023-02-19T08:18:41;9.40;;;2.88;;
9563;SDS011;4820;50.870;4.702;2023-02-19T08:21:08;10.18;;;3.17;;
9563;SDS011;4820;50.870;4.702;2023-02-19T08:23:35;12.60;;;2.95;;
9563;SDS011;4820;50.870;4.702;2023-02-19T08:26:00;9.48;;;3.15;;
9563;SDS011;4820;50.870;4.702;2023-02-19T08:28:27;10.13;;;3.00;;
9563;SDS011;4820;50.870;4.702;2023-02-19T08:30:57;7.10;;;2.60;;
9563;SDS011;4820;50.870;4.702;2023-02-19T08:33:25;11.60;;;2.90;;
9563;SDS011;4820;50.870;4.702;2023-02-19T08:35:50;8.05;;;2.97;;
9563;SDS011;4820;50.870;4.702;2023-02-19T08:38:16;8.52;;;3.03;;
9563;SDS011;4820;50.870;4.702;2023-02-19T08:40:42;9.23;;;3.22;;
9563;SDS011;4820;50.870;4.702;2023-02-19T08:43:09;11.52;;;2.97;;
9563;SDS011;4820;50.870;4.702;2023-02-19T08:45:37;10.93;;;2.88;;
9563;SDS011;4820;50.870;4.702;2023-02-19T08:48:05;8.18;;;2.70;;
9563;SDS011;4820;50.870;4.702;2023-02-19T08:50:31;10.77;;;3.38;;
9563;SDS011;4820;50.870;4.702;2023-02-19T08:52:58;7.68;;;2.58;;
9563;SDS011;4820;50.870;4.702;2023-02-19T08:55:24;6.70;;;2.92;;
9563;SDS011;4820;50.870;4.702;2023-02-19T08:57:49;10.90;;;3.28;;
9563;SDS011;4820;50.870;4.702;2023-02-19T09:00:15;9.00;;;2.60;;
9563;SDS011;4820;50.870;4.702;2023-02-19T09:02:41;8.35;;;2.70;;
9563;SDS011;4820;50.870;4.702;2023-02-19T09:05:06;6.45;;;2.85;;
9563;SDS011;4820;50.870;4.702;2023-02-19T09:07:32;7.15;;;2.95;;
9563;SDS011;4820;50.870;4.702;2023-02-19T09:09:59;10.93;;;2.88;;
9563;SDS011;4820;50.870;4.702;2023-02-19T09:12:25;7.97;;;3.00;;
9563;SDS011;4820;50.870;4.702;2023-02-19T09:14:50;8.55;;;2.90;;
9563;SDS011;4820;50.870;4.702;2023-02-19T09:17:16;9.00;;;2.60;;
9563;SDS011;4820;50.870;4.702;2023-02-19T09:19:42;10.48;;;2.80;;
9563;SDS011;4820;50.870;4.702;2023-02-19T09:22:07;9.25;;;2.78;;
9563;SDS011;4820;50.870;4.702;2023-02-19T09:24:33;11.50;;;3.10;;
9563;SDS011;4820;50.870;4.702;2023-02-19T09:26:59;10.52;;;3.40;;
9563;SDS011;4820;50.870;4.702;2023-02-19T09:29:26;7.53;;;2.85;;
9563;SDS011;4820;50.870;4.702;2023-02-19T09:31:56;5.93;;;2.53;;
9563;SDS011;4820;50.870;4.702;2023-02-19T09:34:23;5.93;;;2.75;;
9563;SDS011;4820;50.870;4.702;2023-02-19T09:36:49;8.48;;;3.05;;
9563;SDS011;4820;50.870;4.702;2023-02-19T09:39:15;8.80;;;3.20;;
9563;SDS011;4820;50.870;4.702;2023-02-19T09:41:42;11.02;;;3.35;;
9563;SDS011;4820;50.870;4.702;2023-02-19T09:44:24;12.50;;;3.33;;
9563;SDS011;4820;50.870;4.702;2023-02-19T09:46:54;11.48;;;2.97;;
9563;SDS011;4820;50.870;4.702;2023-02-19T09:52:00;6.20;;;2.53;;
9563;SDS011;4820;50.870;4.702;2023-02-19T09:54:31;8.00;;;3.25;;
9563;SDS011;4820;50.870;4.702;2023-02-19T09:57:00;8.55;;;3.35;;
9563;SDS011;4820;50.870;4.702;2023-02-19T09:59:29;7.80;;;3.10;;
9563;SDS011;4820;50.870;4.702;2023-02-19T10:02:12;9.85;;;3.15;;
9563;SDS011;4820;50.870;4.702;2023-02-19T10:04:47;9.77;;;3.20;;
9563;SDS011;4820;50.870;4.702;2023-02-19T10:07:15;8.57;;;3.00;;
9563;SDS011;4820;50.870;4.702;2023-02-19T10:09:45;8.07;;;2.88;;
9563;SDS011;4820;50.870;4.702;2023-02-19T10:12:29;8.20;;;2.78;;
9563;SDS011;4820;50.870;4.702;2023-02-19T10:15:10;8.52;;;3.00;;
9563;SDS011;4820;50.870;4.702;2023-02-19T10:17:41;10.52;;;3.67;;
9563;SDS011;4820;50.870;4.702;2023-02-19T10:20:14;8.23;;;2.80;;
9563;SDS011;4820;50.870;4.702;2023-02-19T10:22:41;9.45;;;2.80;;
9563;SDS011;4820;50.870;4.702;2023-02-19T10:25:11;4.95;;;2.70;;
9563;SDS011;4820;50.870;4.702;2023-02-19T10:27:39;7.30;;;2.92;;
9563;SDS011;4820;50.870;4.702;2023-02-19T10:30:05;9.23;;;3.13;;
9563;SDS011;4820;50.870;4.702;2023-02-19T10:32:31;6.68;;;2.63;;
9563;SDS011;4820;50.870;4.702;2023-02-19T10:37:59;9.13;;;3.50;;
9563;SDS011;4820;50.870;4.702;2023-02-19T10:40:26;7.38;;;2.85;;
9563;SDS011;4820;50.870;4.702;2023-02-19T10:42:56;8.50;;;3.42;;
9563;SDS011;4820;50.870;4.702;2023-02-19T10:45:28;6.65;;;2.90;;
9563;SDS011;4820;50.870;4.702;2023-02-19T10:47:58;10.05;;;3.58;;
9563;SDS011;4820;50.870;4.702;2023-02-19T10:50:25;8.90;;;3.38;;
9563;SDS011;4820;50.870;4.702;2023-02-19T10:52:55;9.07;;;3.20;;
9563;SDS011;4820;50.870;4.702;2023-02-19T10:55:27;9.18;;;3.63;;
9563;SDS011;4820;50.870;4.702;2023-02-19T10:57:57;11.55;;;3.90;;
9563;SDS011;4820;50.870;4.702;2023-02-19T11:00:40;7.03;;;3.42;;
9563;SDS011;4820;50.870;4.702;2023-02-19T11:03:13;8.13;;;3.35;;
9563;SDS011;4820;50.870;4.702;2023-02-19T11:06:20;12.30;;;3.53;;
9563;SDS011;4820;50.870;4.702;2023-02-19T11:13:57;6.55;;;2.80;;
9563;SDS011;4820;50.870;4.702;2023-02-19T11:16:35;5.18;;;2.67;;
9563;SDS011;4820;50.870;4.702;2023-02-19T11:19:24;6.55;;;3.30;;
9563;SDS011;4820;50.870;4.702;2023-02-19T11:25:17;4.72;;;2.92;;
9563;SDS011;4820;50.870;4.702;2023-02-19T11:27:55;8.90;;;3.30;;
9563;SDS011;4820;50.870;4.702;2023-02-19T11:30:40;9.80;;;3.55;;
9563;SDS011;4820;50.870;4.702;2023-02-19T11:35:44;5.90;;;3.00;;
9563;SDS011;4820;50.870;4.702;2023-02-19T11:38:12;5.85;;;3.10;;
9563;SDS011;4820;50.870;4.702;2023-02-19T11:48:51;7.88;;;3.58;;
9563;SDS011;4820;50.870;4.702;2023-02-19T12:11:26;4.25;;;2.47;;
9563;SDS011;4820;50.870;4.702;2023-02-19T12:14:26;5.50;;;2.65;;
9563;SDS011;4820;50.870;4.702;2023-02-19T12:17:02;9.02;;;2.97;;
9563;SDS011;4820;50.870;4.702;2023-02-19T12:26:00;7.70;;;2.92;;
9563;SDS011;4820;50.870;4.702;2023-02-19T12:28:50;5.85;;;2.80;;
9563;SDS011;4820;50.870;4.702;2023-02-19T12:32:06;8.38;;;3.25;;
9563;SDS011;4820;50.870;4.702;2023-02-19T12:42:30;7.45;;;3.08;;
9563;SDS011;4820;50.870;4.702;2023-02-19T12:45:09;5.45;;;2.65;;
9563;SDS011;4820;50.870;4.702;2023-02-19T12:47:51;7.30;;;3.00;;
9563;SDS011;4820;50.870;4.702;2023-02-19T12:50:27;5.30;;;2.65;;
9563;SDS011;4820;50.870;4.702;2023-02-19T12:53:07;5.95;;;2.63;;
9563;SDS011;4820;50.870;4.702;2023-02-19T12:55:37;5.55;;;2.80;;
9563;SDS011;4820;50.870;4.702;2023-02-19T12:58:09;5.00;;;2.83;;
9563;SDS011;4820;50.870;4.702;2023-02-19T13:00:42;5.10;;;2.90;;
9563;SDS011;4820;50.870;4.702;2023-02-19T13:03:13;5.63;;;2.75;;
9563;SDS011;4820;50.870;4.702;2023-02-19T13:05:50;4.32;;;3.00;;
9563;SDS011;4820;50.870;4.702;2023-02-19T13:11:14;5.22;;;3.17;;
9563;SDS011;4820;50.870;4.702;2023-02-19T13:14:05;4.22;;;2.80;;
9563;SDS011;4820;50.870;4.702;2023-02-19T13:16:35;4.22;;;3.10;;
9563;SDS011;4820;50.870;4.702;2023-02-19T13:19:03;6.55;;;3.28;;
9563;SDS011;4820;50.870;4.702;2023-02-19T13:21:33;5.22;;;3.03;;
9563;SDS011;4820;50.870;4.702;2023-02-19T13:35:20;4.05;;;2.63;;
9563;SDS011;4820;50.870;4.702;2023-02-19T13:38:07;4.53;;;2.50;;
9563;SDS011;4820;50.870;4.702;2023-02-19T13:40:40;5.13;;;2.13;;
9563;SDS011;4820;50.870;4.702;2023-02-19T13:46:06;4.30;;;2.72;;
9563;SDS011;4820;50.870;4.702;2023-02-19T13:48:38;3.95;;;2.33;;
9563;SDS011;4820;50.870;4.702;2023-02-19T14:14:43;4.90;;;3.05;;
9563;SDS011;4820;50.870;4.702;2023-02-19T14:27:56;4.90;;;2.95;;
9563;SDS011;4820;50.870;4.702;2023-02-19T14:30:24;3.90;;;2.78;;
9563;SDS011;4820;50.870;4.702;2023-02-19T14:32:51;8.10;;;2.95;;
9563;SDS011;4820;50.870;4.702;2023-02-19T14:35:21;4.35;;;3.30;;
9563;SDS011;4820;50.870;4.702;2023-02-19T14:37:49;6.15;;;2.90;;
9563;SDS011;4820;50.870;4.702;2023-02-19T14:40:31;5.13;;;2.70;;
9563;SDS011;4820;50.870;4.702;2023-02-19T14:43:01;3.40;;;2.35;;
9563;SDS011;4820;50.870;4.702;2023-02-19T14:45:29;5.57;;;2.92;;
9563;SDS011;4820;50.870;4.702;2023-02-19T14:48:06;4.07;;;2.75;;
9563;SDS011;4820;50.870;4.702;2023-02-19T14:51:04;4.35;;;2.65;;
9563;SDS011;4820;50.870;4.702;2023-02-19T14:53:36;5.15;;;2.63;;
9563;SDS011;4820;50.870;4.702;2023-02-19T14:56:06;4.85;;;2.60;;
9563;SDS011;4820;50.870;4.702;2023-02-19T14:58:45;4.38;;;2.92;;
9563;SDS011;4820;50.870;4.702;2023-02-19T15:01:29;4.43;;;3.17;;
9563;SDS011;4820;50.870;4.702;2023-02-19T15:03:55;4.07;;;2.85;;
9563;SDS011;4820;50.870;4.702;2023-02-19T15:06:20;3.70;;;2.90;;
9563;SDS011;4820;50.870;4.702;2023-02-19T15:08:49;4.70;;;3.00;;
9563;SDS011;4820;50.870;4.702;2023-02-19T15:11:21;5.45;;;3.70;;
9563;SDS011;4820;50.870;4.702;2023-02-19T15:13:53;4.55;;;3.10;;
9563;SDS011;4820;50.870;4.702;2023-02-19T15:16:24;4.88;;;3.60;;
9563;SDS011;4820;50.870;4.702;2023-02-19T15:18:51;6.30;;;3.95;;
9563;SDS011;4820;50.870;4.702;2023-02-19T15:23:56;4.80;;;3.25;;
9563;SDS011;4820;50.870;4.702;2023-02-19T15:26:32;3.28;;;2.70;;
9563;SDS011;4820;50.870;4.702;2023-02-19T15:29:02;3.28;;;2.42;;
9563;SDS011;4820;50.870;4.702;2023-02-19T15:31:47;2.60;;;2.40;;
9563;SDS011;4820;50.870;4.702;2023-02-19T15:34:31;2.97;;;2.13;;
9563;SDS011;4820;50.870;4.702;2023-02-19T15:36:58;3.97;;;2.28;;
9563;SDS011;4820;50.870;4.702;2023-02-19T15:39:45;3.25;;;2.10;;
9563;SDS011;4820;50.870;4.702;2023-02-19T15:42:19;4.70;;;2.15;;
9563;SDS011;4820;50.870;4.702;2023-02-19T15:49:59;4.70;;;2.00;;
9563;SDS011;4820;50.870;4.702;2023-02-19T15:52:54;3.75;;;2.33;;
9563;SDS011;4820;50.870;4.702;2023-02-19T15:58:20;3.30;;;2.05;;
9563;SDS011;4820;50.870;4.702;2023-02-19T16:03:23;2.33;;;2.05;;
9563;SDS011;4820;50.870;4.702;2023-02-19T16:06:09;4.75;;;2.30;;
9563;SDS011;4820;50.870;4.702;2023-02-19T16:08:40;3.15;;;2.35;;
9563;SDS011;4820;50.870;4.702;2023-02-19T16:13:51;3.25;;;2.05;;
9563;SDS011;4820;50.870;4.702;2023-02-19T16:16:37;5.65;;;3.75;;
9563;SDS011;4820;50.870;4.702;2023-02-19T16:19:05;3.20;;;2.53;;
9563;SDS011;4820;50.870;4.702;2023-02-19T16:21:30;4.18;;;2.22;;
9563;SDS011;4820;50.870;4.702;2023-02-19T16:24:01;5.68;;;3.45;;
9563;SDS011;4820;50.870;4.702;2023-02-19T16:26:41;2.75;;;2.10;;
9563;SDS011;4820;50.870;4.702;2023-02-19T16:29:21;3.97;;;2.25;;
9563;SDS011;4820;50.870;4.702;2023-02-19T16:31:59;2.88;;;2.28;;
9563;SDS011;4820;50.870;4.702;2023-02-19T16:42:33;3.25;;;2.33;;
9563;SDS011;4820;50.870;4.702;2023-02-19T16:44:59;3.33;;;2.45;;
9563;SDS011;4820;50.870;4.702;2023-02-19T16:47:26;3.55;;;2.25;;
9563;SDS011;4820;50.870;4.702;2023-02-19T16:49:54;3.97;;;2.28;;
9563;SDS011;4820;50.870;4.702;2023-02-19T16:52:22;2.80;;;2.50;;
9563;SDS011;4820;50.870;4.702;2023-02-19T16:54:48;3.05;;;2.50;;
9563;SDS011;4820;50.870;4.702;2023-02-19T16:57:14;3.70;;;2.78;;
9563;SDS011;4820;50.870;4.702;2023-02-19T16:59:41;6.07;;;3.00;;
9563;SDS011;4820;50.870;4.702;2023-02-19T17:02:07;3.53;;;2.85;;
9563;SDS011;4820;50.870;4.702;2023-02-19T17:04:40;4.03;;;2.92;;
9563;SDS011;4820;50.870;4.702;2023-02-19T17:07:05;4.95;;;3.13;;
9563;SDS011;4820;50.870;4.702;2023-02-19T17:09:33;4.40;;;3.00;;
9563;SDS011;4820;50.870;4.702;2023-02-19T17:11:59;4.30;;;3.22;;
9563;SDS011;4820;50.870;4.702;2023-02-19T17:14:25;3.50;;;2.95;;
9563;SDS011;4820;50.870;4.702;2023-02-19T17:16:50;4.75;;;3.03;;
9563;SDS011;4820;50.870;4.702;2023-02-19T17:19:16;5.35;;;3.10;;
9563;SDS011;4820;50.870;4.702;2023-02-19T17:21:44;4.00;;;3.20;;
9563;SDS011;4820;50.870;4.702;2023-02-19T17:24:11;3.92;;;3.22;;
9563;SDS011;4820;50.870;4.702;2023-02-19T17:26:37;3.90;;;3.10;;
9563;SDS011;4820;50.870;4.702;2023-02-19T17:29:05;5.05;;;3.50;;
9563;SDS011;4820;50.870;4.702;2023-02-19T17:31:32;4.35;;;3.28;;
9563;SDS011;4820;50.870;4.702;2023-02-19T17:33:58;3.70;;;3.15;;
9563;SDS011;4820;50.870;4.702;2023-02-19T17:36:24;5.10;;;3.35;;
9563;SDS011;4820;50.870;4.702;2023-02-19T17:38:53;4.75;;;3.17;;
9563;SDS011;4820;50.870;4.702;2023-02-19T17:41:18;5.15;;;3.60;;
9563;SDS011;4820;50.870;4.702;2023-02-19T17:43:44;5.53;;;3.75;;
9563;SDS011;4820;50.870;4.702;2023-02-19T17:46:19;7.45;;;4.95;;
9563;SDS011;4820;50.870;4.702;2023-02-19T17:48:46;6.93;;;4.50;;
9563;SDS011;4820;50.870;4.702;2023-02-19T17:51:12;4.13;;;3.70;;
9563;SDS011;4820;50.870;4.702;2023-02-19T17:53:38;4.00;;;3.60;;
9563;SDS011;4820;50.870;4.702;2023-02-19T17:56:04;4.90;;;3.50;;
9563;SDS011;4820;50.870;4.702;2023-02-19T17:58:30;5.40;;;4.07;;
9563;SDS011;4820;50.870;4.702;2023-02-19T18:00:55;5.78;;;3.80;;
9563;SDS011;4820;50.870;4.702;2023-02-19T18:03:21;4.55;;;3.78;;
9563;SDS011;4820;50.870;4.702;2023-02-19T18:05:47;5.55;;;3.70;;
9563;SDS011;4820;50.870;4.702;2023-02-19T18:08:12;4.30;;;3.50;;